Sun River — WDE6902 — position and weather

sailwx.info

Track history (hours):
 
Tides and Currents Weather Stations Pressure Air Temp Water Temp Dewpoint Dewpoint Depression Visibility Wind Speed Wind Dir Waves Ship Positions

Sun River

Owner: Sun River, Broussard, LA. More information available from US FCC via Universal Licensing System and Coast Guard Vessel Documentation Center.

Last reported at 2018-Mar-09 13:37 UTC. Time now 2018-Jun-21 10:02 UTC.
Position N 29°33' W 090°54'.
Warning: this ship's position is months out of date.

Length 70 m; draft 3.6 m.

Type: Diving. MMSI: 338366000.

Date/timePositionNaut miles runAvg speedWind from/ knotsBaromVisibWave heightAir tempDewpointWater temp
2018-Mar-09 13:37N 29°33' W 090°54'1 7.9
2018-Mar-09 13:29N 29°32' W 090°53'4 7.8
2018-Mar-09 12:58N 29°32' W 090°48'3 6.4
2018-Mar-09 12:30N 29°33' W 090°45'2 3.9
2018-Mar-09 12:00N 29°34' W 090°43'2 3.6
2018-Mar-09 11:30N 29°33' W 090°42'0 0.7
2018-Mar-09 11:00N 29°32' W 090°42'2 4.2
2018-Mar-09 10:29N 29°30' W 090°43'2 4.9
2018-Mar-09 09:59N 29°28' W 090°43'2 4.9
2018-Mar-09 09:30N 29°25' W 090°43'2 4.7
2018-Mar-09 08:59N 29°23' W 090°44'  
2018-Mar-03 22:25N 29°30' W 090°43'3 7.5
2018-Mar-03 22:00N 29°33' W 090°42'1 2.8
2018-Mar-03 21:29N 29°34' W 090°43'3 6.4
2018-Mar-03 21:00N 29°32' W 090°46'  
Track history (hours):
 
Tides and Currents Weather Stations Pressure Air Temp Water Temp Dewpoint Dewpoint Depression Visibility Wind Speed Wind Dir Waves Ship Positions

Sun River

Owner: Sun River, Broussard, LA. More information available from US FCC via Universal Licensing System and Coast Guard Vessel Documentation Center.

Last reported at 2018-Mar-09 13:37 UTC. Time now 2018-Jun-21 10:02 UTC.
Position N 29°33' W 090°54'.
Warning: this ship's position is months out of date.

Length 70 m; draft 3.6 m.

Type: Diving. MMSI: 338366000.

Date/timePositionNaut miles runAvg speedWind from/ knotsBaromVisibWave heightAir tempDewpointWater temp
2018-Mar-09 13:37N 29°33' W 090°54'1 7.9
2018-Mar-09 13:29N 29°32' W 090°53'4 7.8
2018-Mar-09 12:58N 29°32' W 090°48'3 6.4
2018-Mar-09 12:30N 29°33' W 090°45'2 3.9
2018-Mar-09 12:00N 29°34' W 090°43'2 3.6
2018-Mar-09 11:30N 29°33' W 090°42'0 0.7
2018-Mar-09 11:00N 29°32' W 090°42'2 4.2
2018-Mar-09 10:29N 29°30' W 090°43'2 4.9
2018-Mar-09 09:59N 29°28' W 090°43'2 4.9
2018-Mar-09 09:30N 29°25' W 090°43'2 4.7
2018-Mar-09 08:59N 29°23' W 090°44'  
2018-Mar-03 22:25N 29°30' W 090°43'3 7.5
2018-Mar-03 22:00N 29°33' W 090°42'1 2.8
2018-Mar-03 21:29N 29°34' W 090°43'3 6.4
2018-Mar-03 21:00N 29°32' W 090°46'  

Dump ship's entire track history